Lynwood, Minnesota
Current Conditions -  °F | °C
As of 7:53 AM on Sunday 21 Dec 2014 (Local Time) from KHIB Reporting Station
Overcast Overcast  
Wind Chill: 21°   Ceiling: 600
Heat Index: 30°   Visibility: 8mi
Dew Point: 26°   Wind: 10mph
Humidity: 85%   Direction: 170°S
Pressure: 29.84"   Gusts: NA
Location:  47.4158°N, 93.0053°W
Report Text: KHIB 211353Z AUTO 17009KT 8SM OVC006 M01/M03 A2984 RMK AO2 SLP125 T10111033
Loading
Personal Weather Stations






























Interactive Weather Map New forecast layout! Learn more

10-Day Weather Forecast

Advertisements
Track Severe Weather on mobile